QFA444 YMML-YSSY
Flight info
| Callsign | QFA444 |
|---|---|
| Flight time | 1h 1m |
| Altitude | 41000 |
| Route | ML H129 DOSEL Y59 RIVET |
| Aircraft | A332/H-SDE3GHIJ2J3J5M1RVWXY/LB2D1 |
Departure
| Time | 2026-05-05 09:14 |
|---|---|
| Airport | Melbourne Airport (YMML) |
Arrival
| Time | 2026-05-05 10:15 |
|---|---|
| Airport | Sydney Kingsford Smith International Airport (YSSY) |
| Time | Latitude | Longitude | Altitude | Speed | Heading |
|---|---|---|---|---|---|
| 2026-05-05 08:53 | -37.66620 | 144.84964 | 407 ft | 0 kts | 222° |
| 2026-05-05 09:03 | -37.66614 | 144.84971 | 406 ft | 4 kts | 223° |
| 2026-05-05 09:03 | -37.66595 | 144.84995 | 403 ft | 4 kts | 231° |
| 2026-05-05 09:03 | -37.66581 | 144.85023 | 403 ft | 4 kts | 253° |
| 2026-05-05 09:03 | -37.66579 | 144.85049 | 402 ft | 2 kts | 286° |
| 2026-05-05 09:04 | -37.66585 | 144.85081 | 403 ft | 4 kts | 278° |
| 2026-05-05 09:04 | -37.66588 | 144.85115 | 402 ft | 4 kts | 269° |
| 2026-05-05 09:04 | -37.66586 | 144.85145 | 404 ft | 1 kts | 261° |
| 2026-05-05 09:06 | -37.66587 | 144.85139 | 403 ft | 4 kts | 262° |
| 2026-05-05 09:07 | -37.66576 | 144.85081 | 403 ft | 8 kts | 305° |
| 2026-05-05 09:07 | -37.66533 | 144.85018 | 409 ft | 10 kts | 287° |
| 2026-05-05 09:07 | -37.66540 | 144.84911 | 410 ft | 16 kts | 262° |
| 2026-05-05 09:07 | -37.66597 | 144.84796 | 407 ft | 17 kts | 214° |
| 2026-05-05 09:08 | -37.66643 | 144.84687 | 405 ft | 16 kts | 259° |
| 2026-05-05 09:08 | -37.66662 | 144.84533 | 400 ft | 20 kts | 261° |
| 2026-05-05 09:08 | -37.66683 | 144.84356 | 400 ft | 22 kts | 262° |
| 2026-05-05 09:08 | -37.66706 | 144.84161 | 396 ft | 23 kts | 262° |
| 2026-05-05 09:09 | -37.66728 | 144.84015 | 395 ft | 13 kts | 243° |
| 2026-05-05 09:09 | -37.66810 | 144.83986 | 394 ft | 15 kts | 172° |
| 2026-05-05 09:09 | -37.66937 | 144.84010 | 391 ft | 23 kts | 171° |
| 2026-05-05 09:09 | -37.67119 | 144.84044 | 385 ft | 28 kts | 172° |
| 2026-05-05 09:10 | -37.67324 | 144.84082 | 380 ft | 31 kts | 171° |
| 2026-05-05 09:10 | -37.67508 | 144.84117 | 376 ft | 24 kts | 172° |
| 2026-05-05 09:10 | -37.67676 | 144.84147 | 372 ft | 26 kts | 172° |
| 2026-05-05 09:10 | -37.67800 | 144.84171 | 369 ft | 14 kts | 171° |
| 2026-05-05 09:11 | -37.67856 | 144.84152 | 367 ft | 3 kts | 220° |
| 2026-05-05 09:11 | -37.67856 | 144.84151 | 367 ft | 0 kts | 221° |
| 2026-05-05 09:12 | -37.67859 | 144.84148 | 371 ft | 4 kts | 223° |
| 2026-05-05 09:12 | -37.67880 | 144.84062 | 365 ft | 14 kts | 259° |
| 2026-05-05 09:13 | -37.67860 | 144.83970 | 366 ft | 10 kts | 326° |
| 2026-05-05 09:13 | -37.67831 | 144.83960 | 362 ft | 0 kts | 350° |
| 2026-05-05 09:13 | -37.67779 | 144.83949 | 363 ft | 28 kts | 351° |
| 2026-05-05 09:13 | -37.67351 | 144.83870 | 376 ft | 94 kts | 351° |
| 2026-05-05 09:14 | -37.66523 | 144.83716 | 408 ft | 145 kts | 352° |
| 2026-05-05 09:14 | -37.65479 | 144.83537 | 948 ft | 150 kts | 351° |
| 2026-05-05 09:14 | -37.64438 | 144.83354 | 1660 ft | 154 kts | 350° |
| 2026-05-05 09:14 | -37.63359 | 144.83147 | 2255 ft | 162 kts | 350° |
| 2026-05-05 09:15 | -37.62151 | 144.82925 | 2513 ft | 191 kts | 349° |
| 2026-05-05 09:15 | -37.60722 | 144.82633 | 2803 ft | 224 kts | 349° |
| 2026-05-05 09:15 | -37.59073 | 144.82547 | 3219 ft | 251 kts | 8° |
| 2026-05-05 09:15 | -37.57379 | 144.83274 | 3941 ft | 264 kts | 23° |
| 2026-05-05 09:16 | -37.55723 | 144.84269 | 4847 ft | 269 kts | 25° |
| 2026-05-05 09:16 | -37.54034 | 144.85323 | 5797 ft | 273 kts | 25° |
| 2026-05-05 09:16 | -37.52320 | 144.86387 | 6797 ft | 277 kts | 25° |
| 2026-05-05 09:16 | -37.50570 | 144.87463 | 7674 ft | 284 kts | 25° |
| 2026-05-05 09:17 | -37.48768 | 144.88564 | 8565 ft | 291 kts | 25° |
| 2026-05-05 09:17 | -37.46928 | 144.89683 | 9503 ft | 297 kts | 25° |
| 2026-05-05 09:17 | -37.45055 | 144.90853 | 10381 ft | 304 kts | 28° |
| 2026-05-05 09:17 | -37.43299 | 144.92474 | 10863 ft | 326 kts | 45° |
| 2026-05-05 09:18 | -37.41832 | 144.94753 | 11352 ft | 343 kts | 54° |
| 2026-05-05 09:18 | -37.40464 | 144.97203 | 12062 ft | 351 kts | 56° |
| 2026-05-05 09:18 | -37.39059 | 144.99747 | 12899 ft | 356 kts | 56° |
| 2026-05-05 09:18 | -37.37635 | 145.02304 | 13756 ft | 360 kts | 55° |
| 2026-05-05 09:19 | -37.36185 | 145.04893 | 14515 ft | 364 kts | 55° |
| 2026-05-05 09:19 | -37.34710 | 145.07512 | 15267 ft | 368 kts | 55° |
| 2026-05-05 09:19 | -37.33224 | 145.10143 | 16030 ft | 371 kts | 55° |
| 2026-05-05 09:19 | -37.31722 | 145.12797 | 16797 ft | 374 kts | 54° |
| 2026-05-05 09:20 | -37.30210 | 145.15466 | 17541 ft | 377 kts | 54° |
| 2026-05-05 09:20 | -37.28684 | 145.18155 | 18269 ft | 380 kts | 54° |
| 2026-05-05 09:20 | -37.27163 | 145.20834 | 18907 ft | 383 kts | 54° |
| 2026-05-05 09:20 | -37.25608 | 145.23571 | 19489 ft | 387 kts | 54° |
| 2026-05-05 09:21 | -37.24032 | 145.26341 | 20059 ft | 391 kts | 54° |
| 2026-05-05 09:21 | -37.22439 | 145.29138 | 20630 ft | 396 kts | 54° |
| 2026-05-05 09:21 | -37.20833 | 145.31957 | 21182 ft | 399 kts | 54° |
| 2026-05-05 09:21 | -37.19208 | 145.34806 | 21773 ft | 403 kts | 55° |
| 2026-05-05 09:22 | -37.17572 | 145.37672 | 22328 ft | 406 kts | 55° |
| 2026-05-05 09:22 | -37.15918 | 145.40567 | 22883 ft | 410 kts | 55° |
| 2026-05-05 09:22 | -37.14255 | 145.43475 | 23428 ft | 413 kts | 55° |
| 2026-05-05 09:22 | -37.12594 | 145.46375 | 23969 ft | 416 kts | 55° |
| 2026-05-05 09:23 | -37.10904 | 145.49324 | 24410 ft | 419 kts | 55° |
| 2026-05-05 09:23 | -37.09193 | 145.52304 | 24875 ft | 422 kts | 55° |
| 2026-05-05 09:23 | -37.07474 | 145.55294 | 25308 ft | 425 kts | 55° |
| 2026-05-05 09:23 | -37.05739 | 145.58311 | 25752 ft | 428 kts | 55° |
| 2026-05-05 09:24 | -37.03998 | 145.61335 | 26188 ft | 430 kts | 54° |
| 2026-05-05 09:24 | -37.02238 | 145.64389 | 26637 ft | 433 kts | 54° |
| 2026-05-05 09:24 | -37.00472 | 145.67452 | 27078 ft | 435 kts | 54° |
| 2026-05-05 09:24 | -36.98723 | 145.70482 | 27492 ft | 437 kts | 54° |
| 2026-05-05 09:25 | -36.96935 | 145.73576 | 27922 ft | 439 kts | 54° |
| 2026-05-05 09:25 | -36.95140 | 145.76680 | 28329 ft | 442 kts | 54° |
| 2026-05-05 09:25 | -36.93334 | 145.79801 | 28734 ft | 445 kts | 54° |
| 2026-05-05 09:25 | -36.91514 | 145.82942 | 29125 ft | 448 kts | 54° |
| 2026-05-05 09:26 | -36.89676 | 145.86112 | 29521 ft | 451 kts | 54° |
| 2026-05-05 09:26 | -36.87836 | 145.89282 | 29912 ft | 453 kts | 54° |
| 2026-05-05 09:26 | -36.85978 | 145.92480 | 30315 ft | 455 kts | 54° |
| 2026-05-05 09:26 | -36.84141 | 145.95638 | 30619 ft | 458 kts | 54° |
| 2026-05-05 09:27 | -36.82266 | 145.98860 | 30923 ft | 460 kts | 54° |
| 2026-05-05 09:27 | -36.80380 | 146.02096 | 31233 ft | 463 kts | 54° |
| 2026-05-05 09:27 | -36.78480 | 146.05355 | 31540 ft | 465 kts | 54° |
| 2026-05-05 09:27 | -36.76565 | 146.08635 | 31799 ft | 469 kts | 54° |
| 2026-05-05 09:28 | -36.74640 | 146.11929 | 32093 ft | 471 kts | 54° |
| 2026-05-05 09:28 | -36.72707 | 146.15234 | 32450 ft | 472 kts | 53° |
| 2026-05-05 09:28 | -36.70778 | 146.18529 | 32881 ft | 471 kts | 53° |
| 2026-05-05 09:28 | -36.68874 | 146.21779 | 33290 ft | 470 kts | 53° |
| 2026-05-05 09:29 | -36.66949 | 146.25060 | 33695 ft | 469 kts | 53° |
| 2026-05-05 09:29 | -36.65023 | 146.28340 | 34084 ft | 469 kts | 53° |
| 2026-05-05 09:29 | -36.63098 | 146.31616 | 34439 ft | 468 kts | 53° |
| 2026-05-05 09:29 | -36.61172 | 146.34890 | 34706 ft | 469 kts | 52° |
| 2026-05-05 09:30 | -36.59242 | 146.38167 | 34986 ft | 470 kts | 52° |
| 2026-05-05 09:30 | -36.57311 | 146.41442 | 35279 ft | 470 kts | 52° |
| 2026-05-05 09:30 | -36.55377 | 146.44720 | 35562 ft | 470 kts | 52° |
| 2026-05-05 09:30 | -36.53438 | 146.48002 | 35850 ft | 470 kts | 52° |
| 2026-05-05 09:31 | -36.51499 | 146.51282 | 36127 ft | 471 kts | 51° |
| 2026-05-05 09:31 | -36.49588 | 146.54512 | 36403 ft | 471 kts | 51° |
| 2026-05-05 09:31 | -36.47644 | 146.57794 | 36655 ft | 471 kts | 51° |
| 2026-05-05 09:31 | -36.45702 | 146.61071 | 36920 ft | 471 kts | 51° |
| 2026-05-05 09:32 | -36.43754 | 146.64354 | 37187 ft | 472 kts | 51° |
| 2026-05-05 09:32 | -36.41808 | 146.67629 | 37459 ft | 472 kts | 51° |
| 2026-05-05 09:32 | -36.39855 | 146.70913 | 37732 ft | 472 kts | 50° |
| 2026-05-05 09:32 | -36.37904 | 146.74190 | 37993 ft | 473 kts | 50° |
| 2026-05-05 09:33 | -36.35952 | 146.77467 | 38246 ft | 473 kts | 50° |
| 2026-05-05 09:33 | -36.34020 | 146.80707 | 38494 ft | 473 kts | 50° |
| 2026-05-05 09:33 | -36.32063 | 146.83987 | 38744 ft | 473 kts | 50° |
| 2026-05-05 09:33 | -36.30108 | 146.87259 | 38973 ft | 473 kts | 50° |
| 2026-05-05 09:34 | -36.28145 | 146.90542 | 39157 ft | 474 kts | 50° |
| 2026-05-05 09:34 | -36.26180 | 146.93824 | 39359 ft | 473 kts | 50° |
| 2026-05-05 09:34 | -36.24218 | 146.97100 | 39553 ft | 473 kts | 50° |
| 2026-05-05 09:34 | -36.22258 | 147.00368 | 39748 ft | 473 kts | 50° |
| 2026-05-05 09:35 | -36.20294 | 147.03641 | 39929 ft | 473 kts | 50° |
| 2026-05-05 09:35 | -36.16398 | 147.10123 | 40298 ft | 473 kts | 49° |
| 2026-05-05 09:35 | -36.14437 | 147.13379 | 40475 ft | 472 kts | 49° |
| 2026-05-05 09:36 | -36.12471 | 147.16641 | 40654 ft | 472 kts | 49° |
| 2026-05-05 09:36 | -36.10509 | 147.19894 | 40838 ft | 472 kts | 49° |
| 2026-05-05 09:36 | -36.08540 | 147.23154 | 41008 ft | 472 kts | 49° |
| 2026-05-05 09:36 | -36.06578 | 147.26400 | 41169 ft | 472 kts | 49° |
| 2026-05-05 09:37 | -36.02619 | 147.32937 | 41253 ft | 479 kts | 49° |
| 2026-05-05 09:37 | -35.98618 | 147.39532 | 41258 ft | 485 kts | 49° |
| 2026-05-05 09:38 | -35.94574 | 147.46191 | 41255 ft | 485 kts | 49° |
| 2026-05-05 09:38 | -35.90532 | 147.52836 | 41260 ft | 484 kts | 49° |
| 2026-05-05 09:39 | -35.86483 | 147.59475 | 41262 ft | 484 kts | 49° |
| 2026-05-05 09:39 | -35.82461 | 147.66057 | 41264 ft | 484 kts | 49° |
| 2026-05-05 09:40 | -35.78407 | 147.72678 | 41256 ft | 484 kts | 49° |
| 2026-05-05 09:40 | -35.74351 | 147.79289 | 41273 ft | 484 kts | 49° |
| 2026-05-05 09:41 | -35.70288 | 147.85901 | 41258 ft | 484 kts | 49° |
| 2026-05-05 09:41 | -35.66251 | 147.92456 | 41260 ft | 484 kts | 49° |
| 2026-05-05 09:42 | -35.62185 | 147.99047 | 41260 ft | 484 kts | 49° |
| 2026-05-05 09:42 | -35.58116 | 148.05632 | 41263 ft | 484 kts | 49° |
| 2026-05-05 09:43 | -35.54045 | 148.12205 | 41266 ft | 484 kts | 49° |
| 2026-05-05 09:43 | -35.49966 | 148.18779 | 41254 ft | 484 kts | 48° |
| 2026-05-05 09:44 | -35.45917 | 148.25293 | 41264 ft | 483 kts | 48° |
| 2026-05-05 09:44 | -35.41842 | 148.31837 | 41269 ft | 483 kts | 48° |
| 2026-05-05 09:45 | -35.37755 | 148.38385 | 41264 ft | 483 kts | 48° |
| 2026-05-05 09:45 | -35.33669 | 148.44919 | 41258 ft | 483 kts | 48° |
| 2026-05-05 09:46 | -35.29612 | 148.51396 | 41260 ft | 483 kts | 48° |
| 2026-05-05 09:46 | -35.25519 | 148.57919 | 41260 ft | 483 kts | 48° |
| 2026-05-05 09:47 | -35.21428 | 148.64427 | 41241 ft | 483 kts | 47° |
| 2026-05-05 09:47 | -35.17332 | 148.70929 | 41250 ft | 483 kts | 47° |
| 2026-05-05 09:48 | -35.13263 | 148.77376 | 41253 ft | 483 kts | 47° |
| 2026-05-05 09:48 | -35.09160 | 148.83867 | 41257 ft | 483 kts | 47° |
| 2026-05-05 09:49 | -35.05743 | 148.89262 | 41235 ft | 483 kts | 47° |
| 2026-05-05 09:49 | -35.00938 | 148.96836 | 41254 ft | 483 kts | 47° |
| 2026-05-05 09:50 | -34.97518 | 149.02218 | 41257 ft | 483 kts | 47° |
| 2026-05-05 09:50 | -34.92706 | 149.09770 | 40725 ft | 489 kts | 47° |
| 2026-05-05 09:51 | -34.91317 | 149.11945 | 40276 ft | 492 kts | 46° |
| 2026-05-05 09:51 | -34.88498 | 149.16360 | 39426 ft | 496 kts | 46° |
| 2026-05-05 09:51 | -34.86376 | 149.19680 | 38834 ft | 497 kts | 47° |
| 2026-05-05 09:51 | -34.84967 | 149.21885 | 38376 ft | 498 kts | 47° |
| 2026-05-05 09:52 | -34.82126 | 149.26326 | 37517 ft | 497 kts | 47° |
| 2026-05-05 09:52 | -34.80721 | 149.28522 | 37103 ft | 496 kts | 47° |
| 2026-05-05 09:52 | -34.78602 | 149.31830 | 36513 ft | 495 kts | 47° |
| 2026-05-05 09:52 | -34.76487 | 149.35128 | 35899 ft | 494 kts | 47° |
| 2026-05-05 09:53 | -34.74429 | 149.38465 | 35246 ft | 497 kts | 53° |
| 2026-05-05 09:53 | -34.72174 | 149.43329 | 34414 ft | 498 kts | 57° |
| 2026-05-05 09:53 | -34.71042 | 149.45824 | 33952 ft | 498 kts | 57° |
| 2026-05-05 09:53 | -34.69420 | 149.49467 | 33196 ft | 498 kts | 58° |
| 2026-05-05 09:54 | -34.67792 | 149.53177 | 32401 ft | 498 kts | 59° |
| 2026-05-05 09:54 | -34.66168 | 149.56905 | 31614 ft | 499 kts | 59° |
| 2026-05-05 09:54 | -34.64552 | 149.60620 | 30940 ft | 497 kts | 59° |
| 2026-05-05 09:54 | -34.62944 | 149.64315 | 30353 ft | 492 kts | 59° |
| 2026-05-05 09:55 | -34.61350 | 149.67969 | 29759 ft | 487 kts | 59° |
| 2026-05-05 09:55 | -34.59266 | 149.72733 | 28928 ft | 480 kts | 59° |
| 2026-05-05 09:55 | -34.58210 | 149.75139 | 28463 ft | 478 kts | 59° |
| 2026-05-05 09:55 | -34.56151 | 149.79820 | 27647 ft | 472 kts | 60° |
| 2026-05-05 09:56 | -34.55109 | 149.82187 | 27236 ft | 469 kts | 60° |
| 2026-05-05 09:56 | -34.53597 | 149.85618 | 26645 ft | 465 kts | 60° |
| 2026-05-05 09:56 | -34.52077 | 149.89063 | 26044 ft | 462 kts | 59° |
| 2026-05-05 09:56 | -34.50568 | 149.92481 | 25439 ft | 458 kts | 60° |
| 2026-05-05 09:57 | -34.49070 | 149.95869 | 24851 ft | 455 kts | 60° |
| 2026-05-05 09:57 | -34.47581 | 149.99232 | 24279 ft | 451 kts | 60° |
| 2026-05-05 09:57 | -34.46105 | 150.02564 | 23724 ft | 447 kts | 60° |
| 2026-05-05 09:57 | -34.44639 | 150.05873 | 23058 ft | 443 kts | 60° |
| 2026-05-05 09:58 | -34.43186 | 150.09146 | 22407 ft | 440 kts | 60° |
| 2026-05-05 09:58 | -34.41763 | 150.12350 | 21800 ft | 436 kts | 60° |
| 2026-05-05 09:58 | -34.40334 | 150.15567 | 21194 ft | 432 kts | 60° |
| 2026-05-05 09:58 | -34.38912 | 150.18763 | 20581 ft | 429 kts | 60° |
| 2026-05-05 09:59 | -34.37506 | 150.21919 | 19990 ft | 425 kts | 60° |
| 2026-05-05 09:59 | -34.36110 | 150.25053 | 19377 ft | 422 kts | 60° |
| 2026-05-05 09:59 | -34.34718 | 150.28172 | 18790 ft | 419 kts | 60° |
| 2026-05-05 09:59 | -34.33341 | 150.31256 | 18281 ft | 412 kts | 60° |
| 2026-05-05 10:00 | -34.31987 | 150.34283 | 17650 ft | 408 kts | 61° |
| 2026-05-05 10:00 | -34.30661 | 150.37250 | 17006 ft | 405 kts | 61° |
| 2026-05-05 10:00 | -34.29326 | 150.40232 | 16425 ft | 401 kts | 61° |
| 2026-05-05 10:00 | -34.28012 | 150.43168 | 15895 ft | 394 kts | 61° |
| 2026-05-05 10:01 | -34.26717 | 150.46064 | 15437 ft | 388 kts | 61° |
| 2026-05-05 10:01 | -34.25442 | 150.48917 | 14852 ft | 385 kts | 61° |
| 2026-05-05 10:01 | -34.24164 | 150.51773 | 14165 ft | 386 kts | 62° |
| 2026-05-05 10:01 | -34.22893 | 150.54611 | 13521 ft | 383 kts | 62° |
| 2026-05-05 10:02 | -34.21632 | 150.57426 | 12901 ft | 379 kts | 62° |
| 2026-05-05 10:02 | -34.20385 | 150.60208 | 12258 ft | 376 kts | 62° |
| 2026-05-05 10:02 | -34.19165 | 150.62928 | 11732 ft | 369 kts | 61° |
| 2026-05-05 10:02 | -34.17948 | 150.65639 | 11185 ft | 365 kts | 61° |
| 2026-05-05 10:03 | -34.16744 | 150.68316 | 10619 ft | 361 kts | 61° |
| 2026-05-05 10:03 | -34.15556 | 150.70956 | 10207 ft | 353 kts | 61° |
| 2026-05-05 10:03 | -34.14409 | 150.73503 | 10060 ft | 337 kts | 61° |
| 2026-05-05 10:03 | -34.13277 | 150.75887 | 10023 ft | 318 kts | 53° |
| 2026-05-05 10:04 | -34.11718 | 150.77639 | 10042 ft | 302 kts | 30° |
| 2026-05-05 10:04 | -34.09874 | 150.78810 | 10040 ft | 299 kts | 23° |
| 2026-05-05 10:04 | -34.07983 | 150.79871 | 10042 ft | 300 kts | 22° |
| 2026-05-05 10:04 | -34.06112 | 150.80905 | 10042 ft | 300 kts | 22° |
| 2026-05-05 10:05 | -34.04211 | 150.81953 | 10045 ft | 300 kts | 22° |
| 2026-05-05 10:05 | -34.02317 | 150.83001 | 10035 ft | 300 kts | 22° |
| 2026-05-05 10:05 | -34.00416 | 150.84045 | 9659 ft | 300 kts | 22° |
| 2026-05-05 10:05 | -33.98530 | 150.85082 | 9326 ft | 296 kts | 22° |
| 2026-05-05 10:06 | -33.96668 | 150.86106 | 8954 ft | 293 kts | 22° |
| 2026-05-05 10:06 | -33.94823 | 150.87120 | 8558 ft | 290 kts | 22° |
| 2026-05-05 10:06 | -33.92992 | 150.88124 | 8183 ft | 288 kts | 22° |
| 2026-05-05 10:06 | -33.91175 | 150.89120 | 7808 ft | 286 kts | 22° |
| 2026-05-05 10:07 | -33.89395 | 150.90096 | 7446 ft | 284 kts | 22° |
| 2026-05-05 10:07 | -33.87603 | 150.91078 | 7091 ft | 282 kts | 22° |
| 2026-05-05 10:07 | -33.85829 | 150.92052 | 6737 ft | 280 kts | 22° |
| 2026-05-05 10:07 | -33.84062 | 150.93020 | 6356 ft | 278 kts | 22° |
| 2026-05-05 10:08 | -33.82302 | 150.93980 | 5965 ft | 276 kts | 23° |
| 2026-05-05 10:08 | -33.80554 | 150.94899 | 5602 ft | 274 kts | 23° |
| 2026-05-05 10:08 | -33.78804 | 150.95788 | 5246 ft | 271 kts | 23° |
| 2026-05-05 10:08 | -33.77061 | 150.96644 | 4879 ft | 270 kts | 23° |
| 2026-05-05 10:09 | -33.75422 | 150.97693 | 4453 ft | 267 kts | 42° |
| 2026-05-05 10:09 | -33.74350 | 150.99438 | 4048 ft | 263 kts | 69° |
| 2026-05-05 10:09 | -33.73885 | 151.01544 | 3701 ft | 259 kts | 81° |
| 2026-05-05 10:09 | -33.73590 | 151.03643 | 3544 ft | 250 kts | 82° |
| 2026-05-05 10:10 | -33.73312 | 151.05660 | 3416 ft | 240 kts | 83° |
| 2026-05-05 10:10 | -33.73269 | 151.07605 | 3271 ft | 228 kts | 106° |
| 2026-05-05 10:10 | -33.73998 | 151.09210 | 3172 ft | 216 kts | 134° |
| 2026-05-05 10:10 | -33.75079 | 151.10401 | 3076 ft | 207 kts | 142° |
| 2026-05-05 10:11 | -33.76162 | 151.11469 | 3047 ft | 195 kts | 142° |
| 2026-05-05 10:11 | -33.77177 | 151.12452 | 3027 ft | 179 kts | 143° |
| 2026-05-05 10:11 | -33.78193 | 151.13192 | 2988 ft | 165 kts | 158° |
| 2026-05-05 10:11 | -33.79261 | 151.13594 | 2824 ft | 158 kts | 167° |
| 2026-05-05 10:12 | -33.80331 | 151.13882 | 2591 ft | 157 kts | 169° |
| 2026-05-05 10:12 | -33.81377 | 151.14153 | 2382 ft | 152 kts | 169° |
| 2026-05-05 10:12 | -33.82378 | 151.14414 | 2171 ft | 146 kts | 169° |
| 2026-05-05 10:12 | -33.83365 | 151.14671 | 1984 ft | 145 kts | 170° |
| 2026-05-05 10:13 | -33.84348 | 151.14927 | 1784 ft | 145 kts | 170° |
| 2026-05-05 10:13 | -33.85332 | 151.15182 | 1588 ft | 145 kts | 171° |
| 2026-05-05 10:13 | -33.86322 | 151.15439 | 1404 ft | 145 kts | 170° |
| 2026-05-05 10:13 | -33.87300 | 151.15693 | 1207 ft | 143 kts | 169° |
| 2026-05-05 10:14 | -33.88276 | 151.15950 | 1015 ft | 144 kts | 169° |
| 2026-05-05 10:14 | -33.89231 | 151.16225 | 827 ft | 138 kts | 170° |
| 2026-05-05 10:14 | -33.90144 | 151.16439 | 629 ft | 134 kts | 172° |
| 2026-05-05 10:14 | -33.91045 | 151.16669 | 471 ft | 133 kts | 168° |
| 2026-05-05 10:15 | -33.91953 | 151.16912 | 301 ft | 134 kts | 170° |
| 2026-05-05 10:15 | -33.92853 | 151.17143 | 111 ft | 130 kts | 170° |
| 2026-05-05 10:15 | -33.93705 | 151.17358 | 32 ft | 115 kts | 166° |
| 2026-05-05 10:15 | -33.94276 | 151.17508 | 34 ft | 44 kts | 163° |
| 2026-05-05 10:16 | -33.94443 | 151.17642 | 34 ft | 17 kts | 141° |
| 2026-05-05 10:16 | -33.94498 | 151.17694 | 34 ft | 7 kts | 140° |
| 2026-05-05 10:16 | -33.94507 | 151.17704 | 34 ft | 0 kts | 137° |
| 2026-05-05 10:16 | -33.94508 | 151.17706 | 34 ft | 0 kts | 135° |
| 2026-05-05 10:17 | -33.94515 | 151.17731 | 34 ft | 6 kts | 97° |
| 2026-05-05 10:17 | -33.94475 | 151.17775 | 34 ft | 11 kts | 3° |
| 2026-05-05 10:17 | -33.94381 | 151.17751 | 34 ft | 15 kts | 346° |
| 2026-05-05 10:17 | -33.94270 | 151.17715 | 33 ft | 18 kts | 346° |
| 2026-05-05 10:18 | -33.94142 | 151.17676 | 33 ft | 20 kts | 346° |
| 2026-05-05 10:18 | -33.93997 | 151.17636 | 32 ft | 22 kts | 347° |
| 2026-05-05 10:18 | -33.93842 | 151.17595 | 33 ft | 24 kts | 348° |
| 2026-05-05 10:18 | -33.93676 | 151.17552 | 33 ft | 25 kts | 348° |
| 2026-05-05 10:19 | -33.93512 | 151.17511 | 33 ft | 22 kts | 348° |
| 2026-05-05 10:19 | -33.93378 | 151.17501 | 34 ft | 20 kts | 352° |
| 2026-05-05 10:19 | -33.93238 | 151.17466 | 34 ft | 22 kts | 347° |
| 2026-05-05 10:19 | -33.93115 | 151.17441 | 34 ft | 13 kts | 8° |
| 2026-05-05 10:20 | -33.93078 | 151.17500 | 34 ft | 3 kts | 94° |
| 2026-05-05 10:20 | -33.93111 | 151.17526 | 34 ft | 10 kts | 142° |
| 2026-05-05 10:20 | -33.93144 | 151.17595 | 34 ft | 4 kts | 112° |
| 2026-05-05 10:20 | -33.93156 | 151.17625 | 34 ft | 2 kts | 114° |
| 2026-05-05 10:21 | -33.93158 | 151.17632 | 34 ft | 0 kts | 114° |